sensor_id;sensor_type;location;lat;lon;timestamp;pressure;altitude;pressure_sealevel;temperature;humidity
13734;BME280;43298;52.560;13.508;2023-08-31T00:00:49;99807.06;;;15.79;100.00
13734;BME280;43298;52.560;13.508;2023-08-31T00:03:17;99799.25;;;15.79;100.00
13734;BME280;43298;52.560;13.508;2023-08-31T00:05:43;99809.44;;;15.82;100.00
13734;BME280;43298;52.560;13.508;2023-08-31T00:08:10;99814.91;;;15.79;100.00
13734;BME280;43298;52.560;13.508;2023-08-31T00:10:37;99809.31;;;15.72;100.00
13734;BME280;43298;52.560;13.508;2023-08-31T00:13:04;99807.78;;;15.70;100.00
13734;BME280;43298;52.560;13.508;2023-08-31T00:15:32;99813.84;;;15.70;100.00
13734;BME280;43298;52.560;13.508;2023-08-31T00:18:03;99808.97;;;15.66;100.00
13734;BME280;43298;52.560;13.508;2023-08-31T00:20:32;99808.84;;;15.67;100.00
13734;BME280;43298;52.560;13.508;2023-08-31T00:22:59;99816.78;;;15.66;100.00
13734;BME280;43298;52.560;13.508;2023-08-31T00:25:26;99806.69;;;15.61;100.00
13734;BME280;43298;52.560;13.508;2023-08-31T00:27:52;99806.59;;;15.63;100.00
13734;BME280;43298;52.560;13.508;2023-08-31T00:30:19;99803.97;;;15.63;100.00
13734;BME280;43298;52.560;13.508;2023-08-31T00:32:45;99798.31;;;15.58;100.00
13734;BME280;43298;52.560;13.508;2023-08-31T00:35:13;99803.53;;;15.58;100.00
13734;BME280;43298;52.560;13.508;2023-08-31T00:37:39;99795.09;;;15.54;100.00
13734;BME280;43298;52.560;13.508;2023-08-31T00:40:05;99795.34;;;15.51;100.00
13734;BME280;43298;52.560;13.508;2023-08-31T00:42:32;99800.91;;;15.47;100.00
13734;BME280;43298;52.560;13.508;2023-08-31T00:44:58;99793.66;;;15.50;100.00
13734;BME280;43298;52.560;13.508;2023-08-31T00:47:25;99789.06;;;15.54;100.00
13734;BME280;43298;52.560;13.508;2023-08-31T00:49:50;99779.94;;;15.59;100.00
13734;BME280;43298;52.560;13.508;2023-08-31T00:52:17;99783.97;;;15.63;100.00
13734;BME280;43298;52.560;13.508;2023-08-31T00:54:45;99782.66;;;15.69;100.00
13734;BME280;43298;52.560;13.508;2023-08-31T00:57:11;99789.06;;;15.76;100.00
13734;BME280;43298;52.560;13.508;2023-08-31T00:59:37;99793.31;;;15.77;100.00
13734;BME280;43298;52.560;13.508;2023-08-31T01:02:17;99794.84;;;15.79;100.00
13734;BME280;43298;52.560;13.508;2023-08-31T01:05:14;99793.19;;;15.78;100.00
13734;BME280;43298;52.560;13.508;2023-08-31T01:07:52;99788.09;;;15.77;100.00
13734;BME280;43298;52.560;13.508;2023-08-31T01:13:24;99797.56;;;15.78;100.00
13734;BME280;43298;52.560;13.508;2023-08-31T01:15:58;99801.13;;;15.77;100.00
13734;BME280;43298;52.560;13.508;2023-08-31T01:18:26;99802.09;;;15.76;100.00
13734;BME280;43298;52.560;13.508;2023-08-31T01:23:55;99802.78;;;15.67;100.00
13734;BME280;43298;52.560;13.508;2023-08-31T01:26:22;99810.72;;;15.65;100.00
13734;BME280;43298;52.560;13.508;2023-08-31T01:28:49;99820.00;;;15.69;100.00
13734;BME280;43298;52.560;13.508;2023-08-31T01:31:16;99815.38;;;15.73;100.00
13734;BME280;43298;52.560;13.508;2023-08-31T01:33:42;99820.91;;;15.79;100.00
13734;BME280;43298;52.560;13.508;2023-08-31T01:36:30;99817.97;;;15.84;100.00
13734;BME280;43298;52.560;13.508;2023-08-31T01:41:59;99826.28;;;15.89;100.00
13734;BME280;43298;52.560;13.508;2023-08-31T01:44:27;99827.69;;;15.93;100.00
13734;BME280;43298;52.560;13.508;2023-08-31T01:47:04;99829.34;;;15.94;100.00
13734;BME280;43298;52.560;13.508;2023-08-31T01:49:40;99831.84;;;15.95;100.00
13734;BME280;43298;52.560;13.508;2023-08-31T01:52:07;99833.84;;;15.92;100.00
13734;BME280;43298;52.560;13.508;2023-08-31T01:54:33;99829.81;;;15.88;100.00
13734;BME280;43298;52.560;13.508;2023-08-31T01:56:59;99837.63;;;15.88;100.00
13734;BME280;43298;52.560;13.508;2023-08-31T01:59:25;99838.25;;;15.80;100.00
13734;BME280;43298;52.560;13.508;2023-08-31T02:01:52;99844.50;;;15.78;100.00
13734;BME280;43298;52.560;13.508;2023-08-31T02:04:18;99845.22;;;15.58;100.00
13734;BME280;43298;52.560;13.508;2023-08-31T02:06:44;99851.72;;;15.41;100.00
13734;BME280;43298;52.560;13.508;2023-08-31T02:09:10;99839.44;;;15.31;100.00
13734;BME280;43298;52.560;13.508;2023-08-31T02:11:36;99852.44;;;15.20;100.00
13734;BME280;43298;52.560;13.508;2023-08-31T02:14:04;99855.84;;;15.09;100.00
13734;BME280;43298;52.560;13.508;2023-08-31T02:16:31;99854.75;;;15.00;100.00
13734;BME280;43298;52.560;13.508;2023-08-31T02:18:58;99866.81;;;15.01;100.00
13734;BME280;43298;52.560;13.508;2023-08-31T02:21:24;99855.09;;;14.96;100.00
13734;BME280;43298;52.560;13.508;2023-08-31T02:23:50;99869.38;;;14.90;100.00
13734;BME280;43298;52.560;13.508;2023-08-31T02:26:16;99864.28;;;14.89;100.00
13734;BME280;43298;52.560;13.508;2023-08-31T02:28:41;99866.75;;;14.79;100.00
13734;BME280;43298;52.560;13.508;2023-08-31T02:31:09;99876.53;;;14.76;100.00
13734;BME280;43298;52.560;13.508;2023-08-31T02:33:35;99883.97;;;14.69;100.00
13734;BME280;43298;52.560;13.508;2023-08-31T02:36:01;99879.44;;;14.60;100.00
13734;BME280;43298;52.560;13.508;2023-08-31T02:38:27;99881.28;;;14.58;100.00
13734;BME280;43298;52.560;13.508;2023-08-31T02:40:53;99878.22;;;14.53;100.00
13734;BME280;43298;52.560;13.508;2023-08-31T02:43:19;99877.97;;;14.56;100.00
13734;BME280;43298;52.560;13.508;2023-08-31T02:45:45;99883.41;;;14.53;100.00
13734;BME280;43298;52.560;13.508;2023-08-31T02:48:10;99883.50;;;14.52;100.00
13734;BME280;43298;52.560;13.508;2023-08-31T02:50:37;99883.63;;;14.50;100.00
13734;BME280;43298;52.560;13.508;2023-08-31T02:53:03;99890.00;;;14.46;100.00
13734;BME280;43298;52.560;13.508;2023-08-31T02:55:32;99889.25;;;14.44;100.00
13734;BME280;43298;52.560;13.508;2023-08-31T02:57:58;99893.00;;;14.40;100.00
13734;BME280;43298;52.560;13.508;2023-08-31T03:00:24;99901.03;;;14.37;100.00
13734;BME280;43298;52.560;13.508;2023-08-31T03:02:50;99891.59;;;14.24;100.00
13734;BME280;43298;52.560;13.508;2023-08-31T03:05:19;99892.19;;;14.15;100.00
13734;BME280;43298;52.560;13.508;2023-08-31T03:07:47;99894.28;;;14.10;100.00
13734;BME280;43298;52.560;13.508;2023-08-31T03:10:13;99895.94;;;14.11;100.00
13734;BME280;43298;52.560;13.508;2023-08-31T03:12:39;99906.56;;;14.08;100.00
13734;BME280;43298;52.560;13.508;2023-08-31T03:15:06;99910.19;;;14.05;100.00
13734;BME280;43298;52.560;13.508;2023-08-31T03:17:32;99909.50;;;14.03;100.00
13734;BME280;43298;52.560;13.508;2023-08-31T03:19:58;99904.28;;;14.03;100.00
13734;BME280;43298;52.560;13.508;2023-08-31T03:22:24;99904.50;;;14.00;100.00
13734;BME280;43298;52.560;13.508;2023-08-31T03:24:50;99904.28;;;14.03;100.00
13734;BME280;43298;52.560;13.508;2023-08-31T03:27:15;99897.41;;;14.02;100.00
13734;BME280;43298;52.560;13.508;2023-08-31T03:29:42;99895.97;;;13.98;100.00
13734;BME280;43298;52.560;13.508;2023-08-31T03:32:11;99898.66;;;13.97;100.00
13734;BME280;43298;52.560;13.508;2023-08-31T03:34:37;99905.75;;;13.95;100.00
13734;BME280;43298;52.560;13.508;2023-08-31T03:37:03;99913.22;;;13.99;100.00
13734;BME280;43298;52.560;13.508;2023-08-31T03:39:35;99904.59;;;13.99;100.00
13734;BME280;43298;52.560;13.508;2023-08-31T03:42:03;99914.25;;;13.97;100.00
13734;BME280;43298;52.560;13.508;2023-08-31T03:44:28;99924.16;;;13.92;100.00
13734;BME280;43298;52.560;13.508;2023-08-31T03:46:54;99934.44;;;13.93;100.00
13734;BME280;43298;52.560;13.508;2023-08-31T03:49:20;99941.31;;;13.94;100.00
13734;BME280;43298;52.560;13.508;2023-08-31T03:51:46;99944.09;;;13.91;100.00
13734;BME280;43298;52.560;13.508;2023-08-31T03:54:12;99937.97;;;13.92;100.00
13734;BME280;43298;52.560;13.508;2023-08-31T03:56:38;99949.31;;;13.91;100.00
13734;BME280;43298;52.560;13.508;2023-08-31T03:59:05;99951.69;;;13.94;100.00
13734;BME280;43298;52.560;13.508;2023-08-31T04:01:31;99956.69;;;13.97;100.00
13734;BME280;43298;52.560;13.508;2023-08-31T04:03:57;99949.72;;;13.98;100.00
13734;BME280;43298;52.560;13.508;2023-08-31T04:06:23;99943.16;;;14.05;100.00
13734;BME280;43298;52.560;13.508;2023-08-31T04:08:48;99945.66;;;14.06;100.00
13734;BME280;43298;52.560;13.508;2023-08-31T04:11:14;99954.41;;;14.05;100.00
13734;BME280;43298;52.560;13.508;2023-08-31T04:13:40;99954.81;;;14.12;100.00
13734;BME280;43298;52.560;13.508;2023-08-31T04:16:06;99956.38;;;14.14;100.00
13734;BME280;43298;52.560;13.508;2023-08-31T04:18:31;99948.47;;;14.16;100.00
13734;BME280;43298;52.560;13.508;2023-08-31T04:20:57;99965.94;;;14.14;100.00
13734;BME280;43298;52.560;13.508;2023-08-31T04:23:24;99960.53;;;14.17;100.00
13734;BME280;43298;52.560;13.508;2023-08-31T04:25:50;99971.88;;;14.16;100.00
13734;BME280;43298;52.560;13.508;2023-08-31T04:28:19;99966.25;;;14.09;100.00
13734;BME280;43298;52.560;13.508;2023-08-31T04:30:45;99973.94;;;14.11;100.00
13734;BME280;43298;52.560;13.508;2023-08-31T04:33:10;99973.13;;;14.10;100.00
13734;BME280;43298;52.560;13.508;2023-08-31T04:35:36;99973.94;;;14.11;100.00
13734;BME280;43298;52.560;13.508;2023-08-31T04:38:02;99970.31;;;14.13;100.00
13734;BME280;43298;52.560;13.508;2023-08-31T04:40:28;99972.09;;;14.13;100.00
13734;BME280;43298;52.560;13.508;2023-08-31T04:42:55;99972.09;;;14.13;100.00
13734;BME280;43298;52.560;13.508;2023-08-31T04:45:20;99974.78;;;14.11;100.00
13734;BME280;43298;52.560;13.508;2023-08-31T04:47:46;99985.00;;;14.14;100.00
13734;BME280;43298;52.560;13.508;2023-08-31T04:50:12;99980.50;;;14.16;100.00
13734;BME280;43298;52.560;13.508;2023-08-31T04:52:38;99979.69;;;14.16;100.00
13734;BME280;43298;52.560;13.508;2023-08-31T04:55:06;99987.34;;;14.17;100.00
13734;BME280;43298;52.560;13.508;2023-08-31T04:57:39;99991.38;;;14.23;100.00
13734;BME280;43298;52.560;13.508;2023-08-31T05:00:06;99989.56;;;14.23;100.00
13734;BME280;43298;52.560;13.508;2023-08-31T05:02:35;99988.53;;;14.26;100.00
13734;BME280;43298;52.560;13.508;2023-08-31T05:05:01;99988.13;;;14.32;100.00
13734;BME280;43298;52.560;13.508;2023-08-31T05:07:27;99979.56;;;14.30;100.00
13734;BME280;43298;52.560;13.508;2023-08-31T05:09:53;99976.47;;;14.37;100.00
13734;BME280;43298;52.560;13.508;2023-08-31T05:12:19;99979.91;;;14.38;100.00
13734;BME280;43298;52.560;13.508;2023-08-31T05:14:45;99977.81;;;14.43;100.00
13734;BME280;43298;52.560;13.508;2023-08-31T05:17:11;99987.69;;;14.50;100.00
13734;BME280;43298;52.560;13.508;2023-08-31T05:19:36;99986.34;;;14.45;100.00
13734;BME280;43298;52.560;13.508;2023-08-31T05:22:02;99989.75;;;14.45;100.00
13734;BME280;43298;52.560;13.508;2023-08-31T05:24:28;99987.06;;;14.47;100.00
13734;BME280;43298;52.560;13.508;2023-08-31T05:26:54;99987.25;;;14.56;100.00
13734;BME280;43298;52.560;13.508;2023-08-31T05:29:19;99993.28;;;14.57;100.00
13734;BME280;43298;52.560;13.508;2023-08-31T05:31:45;99994.53;;;14.64;100.00
13734;BME280;43298;52.560;13.508;2023-08-31T05:34:16;99989.63;;;14.59;100.00
13734;BME280;43298;52.560;13.508;2023-08-31T05:36:43;99998.50;;;14.57;100.00
13734;BME280;43298;52.560;13.508;2023-08-31T05:39:09;100005.44;;;14.56;100.00
13734;BME280;43298;52.560;13.508;2023-08-31T05:41:35;100000.03;;;14.59;100.00
13734;BME280;43298;52.560;13.508;2023-08-31T05:44:01;100007.03;;;14.59;100.00
13734;BME280;43298;52.560;13.508;2023-08-31T05:46:27;100008.78;;;14.58;100.00
13734;BME280;43298;52.560;13.508;2023-08-31T05:48:53;100012.84;;;14.62;100.00
13734;BME280;43298;52.560;13.508;2023-08-31T05:51:19;100022.97;;;14.54;100.00
13734;BME280;43298;52.560;13.508;2023-08-31T05:53:45;100023.91;;;14.53;100.00
13734;BME280;43298;52.560;13.508;2023-08-31T05:56:11;100033.38;;;14.54;100.00
13734;BME280;43298;52.560;13.508;2023-08-31T05:58:37;100029.50;;;14.60;100.00
13734;BME280;43298;52.560;13.508;2023-08-31T06:01:04;100033.25;;;14.68;100.00
13734;BME280;43298;52.560;13.508;2023-08-31T06:03:30;100041.38;;;14.64;100.00
13734;BME280;43298;52.560;13.508;2023-08-31T06:05:57;100029.09;;;14.66;100.00
13734;BME280;43298;52.560;13.508;2023-08-31T06:08:23;100030.34;;;14.73;100.00
13734;BME280;43298;52.560;13.508;2023-08-31T06:10:50;100034.47;;;14.75;100.00
13734;BME280;43298;52.560;13.508;2023-08-31T06:13:16;100029.38;;;14.74;100.00
13734;BME280;43298;52.560;13.508;2023-08-31T06:15:42;100035.72;;;14.82;100.00
13734;BME280;43298;52.560;13.508;2023-08-31T06:18:08;100037.56;;;14.93;100.00
13734;BME280;43298;52.560;13.508;2023-08-31T06:20:36;100029.44;;;14.97;100.00
13734;BME280;43298;52.560;13.508;2023-08-31T06:23:02;100038.75;;;15.13;100.00
13734;BME280;43298;52.560;13.508;2023-08-31T06:25:28;100045.91;;;15.22;100.00
13734;BME280;43298;52.560;13.508;2023-08-31T06:27:54;100045.56;;;15.26;100.00
13734;BME280;43298;52.560;13.508;2023-08-31T06:30:20;100046.19;;;15.30;100.00
13734;BME280;43298;52.560;13.508;2023-08-31T06:32:47;100050.56;;;15.29;100.00
13734;BME280;43298;52.560;13.508;2023-08-31T06:35:14;100052.25;;;15.30;100.00
13734;BME280;43298;52.560;13.508;2023-08-31T06:37:43;100048.41;;;15.23;100.00
13734;BME280;43298;52.560;13.508;2023-08-31T06:40:10;100058.53;;;15.15;100.00
13734;BME280;43298;52.560;13.508;2023-08-31T06:42:36;100058.84;;;15.23;100.00
13734;BME280;43298;52.560;13.508;2023-08-31T06:45:07;100061.09;;;15.28;100.00
13734;BME280;43298;52.560;13.508;2023-08-31T06:47:34;100058.06;;;15.34;100.00
13734;BME280;43298;52.560;13.508;2023-08-31T06:50:00;100063.03;;;15.49;100.00
13734;BME280;43298;52.560;13.508;2023-08-31T06:52:27;100053.28;;;15.64;100.00
13734;BME280;43298;52.560;13.508;2023-08-31T06:54:53;100060.63;;;15.70;100.00
13734;BME280;43298;52.560;13.508;2023-08-31T06:57:26;100063.28;;;15.81;100.00
13734;BME280;43298;52.560;13.508;2023-08-31T06:59:53;100067.69;;;15.80;100.00
13734;BME280;43298;52.560;13.508;2023-08-31T07:02:19;100076.63;;;16.00;100.00
13734;BME280;43298;52.560;13.508;2023-08-31T07:04:45;100073.41;;;15.96;100.00
13734;BME280;43298;52.560;13.508;2023-08-31T07:07:12;100080.91;;;16.01;100.00
13734;BME280;43298;52.560;13.508;2023-08-31T07:09:45;100076.34;;;15.92;100.00
13734;BME280;43298;52.560;13.508;2023-08-31T07:12:11;100079.44;;;15.86;100.00
13734;BME280;43298;52.560;13.508;2023-08-31T07:14:38;100084.28;;;15.90;100.00
13734;BME280;43298;52.560;13.508;2023-08-31T07:17:04;100081.56;;;15.92;100.00
13734;BME280;43298;52.560;13.508;2023-08-31T07:19:30;100092.25;;;15.89;100.00
13734;BME280;43298;52.560;13.508;2023-08-31T07:21:56;100091.19;;;15.91;100.00
13734;BME280;43298;52.560;13.508;2023-08-31T07:24:23;100094.72;;;15.90;100.00
13734;BME280;43298;52.560;13.508;2023-08-31T07:26:49;100096.00;;;15.85;100.00
13734;BME280;43298;52.560;13.508;2023-08-31T07:29:15;100101.97;;;15.98;100.00
13734;BME280;43298;52.560;13.508;2023-08-31T07:31:41;100104.75;;;16.07;100.00
13734;BME280;43298;52.560;13.508;2023-08-31T07:34:07;100107.56;;;16.04;100.00
13734;BME280;43298;52.560;13.508;2023-08-31T07:36:33;100115.56;;;15.90;100.00
13734;BME280;43298;52.560;13.508;2023-08-31T07:39:00;100121.03;;;15.87;100.00
13734;BME280;43298;52.560;13.508;2023-08-31T07:41:25;100123.97;;;15.83;100.00
13734;BME280;43298;52.560;13.508;2023-08-31T07:43:51;100123.22;;;16.04;100.00
13734;BME280;43298;52.560;13.508;2023-08-31T07:46:18;100123.63;;;16.11;100.00
13734;BME280;43298;52.560;13.508;2023-08-31T07:48:43;100141.66;;;16.14;100.00
13734;BME280;43298;52.560;13.508;2023-08-31T07:51:09;100138.25;;;16.24;100.00
13734;BME280;43298;52.560;13.508;2023-08-31T07:53:35;100149.78;;;16.33;100.00
13734;BME280;43298;52.560;13.508;2023-08-31T07:56:01;100150.38;;;16.36;100.00
13734;BME280;43298;52.560;13.508;2023-08-31T07:58:27;100151.38;;;16.46;100.00
13734;BME280;43298;52.560;13.508;2023-08-31T08:00:54;100157.44;;;16.47;100.00
13734;BME280;43298;52.560;13.508;2023-08-31T08:03:24;100160.75;;;16.49;100.00
13734;BME280;43298;52.560;13.508;2023-08-31T08:05:51;100168.63;;;16.60;100.00
13734;BME280;43298;52.560;13.508;2023-08-31T08:08:17;100174.31;;;16.54;100.00
13734;BME280;43298;52.560;13.508;2023-08-31T08:10:43;100176.97;;;16.41;100.00
13734;BME280;43298;52.560;13.508;2023-08-31T08:13:09;100178.59;;;16.31;100.00
13734;BME280;43298;52.560;13.508;2023-08-31T08:15:35;100190.97;;;16.17;100.00
13734;BME280;43298;52.560;13.508;2023-08-31T08:18:01;100183.22;;;16.51;100.00
13734;BME280;43298;52.560;13.508;2023-08-31T08:20:28;100188.41;;;17.19;100.00
13734;BME280;43298;52.560;13.508;2023-08-31T08:22:54;100191.25;;;17.16;100.00
13734;BME280;43298;52.560;13.508;2023-08-31T08:25:21;100194.81;;;17.59;100.00
13734;BME280;43298;52.560;13.508;2023-08-31T08:27:48;100186.53;;;17.97;100.00
13734;BME280;43298;52.560;13.508;2023-08-31T08:30:14;100189.59;;;18.33;100.00
13734;BME280;43298;52.560;13.508;2023-08-31T08:32:42;100197.19;;;18.88;100.00
13734;BME280;43298;52.560;13.508;2023-08-31T08:35:08;100207.13;;;18.94;100.00
13734;BME280;43298;52.560;13.508;2023-08-31T08:37:34;100204.59;;;18.83;100.00
13734;BME280;43298;52.560;13.508;2023-08-31T08:40:01;100207.13;;;18.94;100.00
13734;BME280;43298;52.560;13.508;2023-08-31T08:42:30;100212.28;;;18.75;100.00
13734;BME280;43298;52.560;13.508;2023-08-31T08:45:01;100211.03;;;19.60;100.00
13734;BME280;43298;52.560;13.508;2023-08-31T08:47:29;100221.97;;;19.25;100.00
13734;BME280;43298;52.560;13.508;2023-08-31T08:49:56;100216.47;;;19.28;100.00
13734;BME280;43298;52.560;13.508;2023-08-31T08:52:23;100223.78;;;18.84;100.00
13734;BME280;43298;52.560;13.508;2023-08-31T08:54:50;100225.38;;;18.55;100.00
13734;BME280;43298;52.560;13.508;2023-08-31T08:57:16;100220.19;;;18.33;100.00
13734;BME280;43298;52.560;13.508;2023-08-31T08:59:42;100223.31;;;17.73;100.00
13734;BME280;43298;52.560;13.508;2023-08-31T09:02:11;100222.09;;;17.99;100.00
13734;BME280;43298;52.560;13.508;2023-08-31T09:04:38;100212.28;;;18.12;100.00
13734;BME280;43298;52.560;13.508;2023-08-31T09:07:03;100222.34;;;18.28;100.00
13734;BME280;43298;52.560;13.508;2023-08-31T09:09:29;100225.91;;;17.95;100.00
13734;BME280;43298;52.560;13.508;2023-08-31T09:11:55;100218.28;;;18.03;100.00
13734;BME280;43298;52.560;13.508;2023-08-31T09:14:23;100215.66;;;18.03;100.00
13734;BME280;43298;52.560;13.508;2023-08-31T09:16:51;100221.25;;;18.41;100.00
13734;BME280;43298;52.560;13.508;2023-08-31T09:19:21;100229.91;;;18.73;100.00
13734;BME280;43298;52.560;13.508;2023-08-31T09:21:49;100221.72;;;19.28;100.00
13734;BME280;43298;52.560;13.508;2023-08-31T09:24:15;100241.38;;;19.92;100.00
13734;BME280;43298;52.560;13.508;2023-08-31T09:26:45;100226.66;;;20.29;100.00
13734;BME280;43298;52.560;13.508;2023-08-31T09:29:14;100244.66;;;20.63;100.00
13734;BME280;43298;52.560;13.508;2023-08-31T09:31:46;100242.97;;;20.71;100.00
13734;BME280;43298;52.560;13.508;2023-08-31T09:34:13;100256.53;;;20.86;100.00
13734;BME280;43298;52.560;13.508;2023-08-31T09:36:39;100273.00;;;20.78;100.00
13734;BME280;43298;52.560;13.508;2023-08-31T09:39:06;100271.09;;;19.93;100.00
13734;BME280;43298;52.560;13.508;2023-08-31T09:41:32;100267.59;;;19.73;100.00
13734;BME280;43298;52.560;13.508;2023-08-31T09:44:19;100269.59;;;19.10;100.00
13734;BME280;43298;52.560;13.508;2023-08-31T09:46:46;100262.47;;;18.80;100.00
13734;BME280;43298;52.560;13.508;2023-08-31T09:49:17;100271.00;;;18.41;100.00
13734;BME280;43298;52.560;13.508;2023-08-31T09:51:49;100253.47;;;18.10;100.00
13734;BME280;43298;52.560;13.508;2023-08-31T09:54:18;100250.50;;;17.92;100.00
13734;BME280;43298;52.560;13.508;2023-08-31T09:56:46;100243.47;;;18.78;100.00
13734;BME280;43298;52.560;13.508;2023-08-31T09:59:14;100246.03;;;19.70;100.00
13734;BME280;43298;52.560;13.508;2023-08-31T10:01:41;100247.72;;;20.58;100.00
13734;BME280;43298;52.560;13.508;2023-08-31T10:04:08;100250.72;;;20.73;100.00
13734;BME280;43298;52.560;13.508;2023-08-31T10:06:42;100256.13;;;20.61;100.00
13734;BME280;43298;52.560;13.508;2023-08-31T10:09:09;100247.84;;;20.37;100.00
13734;BME280;43298;52.560;13.508;2023-08-31T10:11:35;100241.88;;;20.54;100.00
13734;BME280;43298;52.560;13.508;2023-08-31T10:14:04;100227.97;;;21.56;100.00
13734;BME280;43298;52.560;13.508;2023-08-31T10:16:31;100239.09;;;21.04;100.00
13734;BME280;43298;52.560;13.508;2023-08-31T10:18:58;100241.88;;;20.16;100.00
13734;BME280;43298;52.560;13.508;2023-08-31T10:21:24;100238.50;;;19.95;100.00
13734;BME280;43298;52.560;13.508;2023-08-31T10:23:51;100239.97;;;20.37;100.00
13734;BME280;43298;52.560;13.508;2023-08-31T10:26:24;100241.63;;;19.70;100.00
13734;BME280;43298;52.560;13.508;2023-08-31T10:28:51;100241.75;;;19.39;100.00
13734;BME280;43298;52.560;13.508;2023-08-31T10:31:18;100238.09;;;19.51;100.00
13734;BME280;43298;52.560;13.508;2023-08-31T10:33:46;100234.41;;;20.21;100.00
13734;BME280;43298;52.560;13.508;2023-08-31T10:36:17;100241.97;;;20.05;100.00
13734;BME280;43298;52.560;13.508;2023-08-31T10:41:23;100231.03;;;19.21;100.00
13734;BME280;43298;52.560;13.508;2023-08-31T10:43:55;100231.69;;;18.73;100.00
13734;BME280;43298;52.560;13.508;2023-08-31T10:51:49;100218.88;;;14.30;100.00
13734;BME280;43298;52.560;13.508;2023-08-31T10:54:31;100209.56;;;13.99;100.00
13734;BME280;43298;52.560;13.508;2023-08-31T10:59:50;100204.41;;;13.85;100.00
13734;BME280;43298;52.560;13.508;2023-08-31T11:02:43;100203.78;;;14.08;100.00
13734;BME280;43298;52.560;13.508;2023-08-31T11:05:15;100195.97;;;14.22;100.00
13734;BME280;43298;52.560;13.508;2023-08-31T11:07:49;100181.00;;;14.38;100.00
13734;BME280;43298;52.560;13.508;2023-08-31T11:10:24;100168.84;;;14.39;100.00
13734;BME280;43298;52.560;13.508;2023-08-31T11:12:54;100166.06;;;14.54;100.00
13734;BME280;43298;52.560;13.508;2023-08-31T11:15:24;100164.63;;;14.75;100.00
13734;BME280;43298;52.560;13.508;2023-08-31T11:17:52;100160.88;;;15.04;100.00
13734;BME280;43298;52.560;13.508;2023-08-31T11:20:21;100160.81;;;15.30;100.00
13734;BME280;43298;52.560;13.508;2023-08-31T11:22:50;100159.44;;;15.49;100.00
13734;BME280;43298;52.560;13.508;2023-08-31T11:25:18;100149.72;;;15.87;100.00
13734;BME280;43298;52.560;13.508;2023-08-31T11:28:02;100148.53;;;16.49;100.00
13734;BME280;43298;52.560;13.508;2023-08-31T11:30:32;100146.13;;;17.25;100.00
13734;BME280;43298;52.560;13.508;2023-08-31T11:33:17;100146.09;;;18.01;100.00
13734;BME280;43298;52.560;13.508;2023-08-31T11:35:44;100142.59;;;18.93;100.00
13734;BME280;43298;52.560;13.508;2023-08-31T11:38:10;100142.44;;;19.55;100.00
13734;BME280;43298;52.560;13.508;2023-08-31T11:40:37;100149.84;;;20.18;100.00
13734;BME280;43298;52.560;13.508;2023-08-31T11:43:05;100157.78;;;20.74;100.00
13734;BME280;43298;52.560;13.508;2023-08-31T11:45:32;100177.06;;;21.11;100.00
13734;BME280;43298;52.560;13.508;2023-08-31T11:47:58;100182.91;;;20.86;100.00
13734;BME280;43298;52.560;13.508;2023-08-31T11:50:24;100189.03;;;20.96;100.00
13734;BME280;43298;52.560;13.508;2023-08-31T11:52:51;100196.28;;;20.55;100.00
13734;BME280;43298;52.560;13.508;2023-08-31T11:55:19;100205.66;;;19.52;100.00
13734;BME280;43298;52.560;13.508;2023-08-31T11:57:53;100208.19;;;18.82;100.00
13734;BME280;43298;52.560;13.508;2023-08-31T12:00:22;100202.28;;;18.49;100.00
13734;BME280;43298;52.560;13.508;2023-08-31T12:03:01;100197.38;;;17.92;100.00
13734;BME280;43298;52.560;13.508;2023-08-31T12:05:30;100194.09;;;17.68;100.00
13734;BME280;43298;52.560;13.508;2023-08-31T12:08:10;100193.84;;;17.38;100.00
13734;BME280;43298;52.560;13.508;2023-08-31T12:10:40;100199.06;;;17.05;100.00
13734;BME280;43298;52.560;13.508;2023-08-31T12:13:11;100202.13;;;16.88;100.00
13734;BME280;43298;52.560;13.508;2023-08-31T12:15:38;100189.56;;;16.82;100.00
13734;BME280;43298;52.560;13.508;2023-08-31T12:18:12;100199.72;;;16.74;100.00
13734;BME280;43298;52.560;13.508;2023-08-31T12:20:45;100208.03;;;16.57;100.00
13734;BME280;43298;52.560;13.508;2023-08-31T12:23:11;100197.38;;;16.71;100.00
13734;BME280;43298;52.560;13.508;2023-08-31T12:25:37;100195.25;;;16.87;100.00
13734;BME280;43298;52.560;13.508;2023-08-31T12:28:03;100187.19;;;17.23;100.00
13734;BME280;43298;52.560;13.508;2023-08-31T12:30:29;100193.75;;;17.50;100.00
13734;BME280;43298;52.560;13.508;2023-08-31T12:32:54;100198.81;;;17.85;100.00
13734;BME280;43298;52.560;13.508;2023-08-31T12:35:20;100189.13;;;18.08;100.00
13734;BME280;43298;52.560;13.508;2023-08-31T12:37:47;100198.41;;;18.84;100.00
13734;BME280;43298;52.560;13.508;2023-08-31T12:40:12;100200.50;;;19.41;100.00
13734;BME280;43298;52.560;13.508;2023-08-31T12:42:39;100207.75;;;19.58;100.00
13734;BME280;43298;52.560;13.508;2023-08-31T12:45:05;100219.63;;;19.62;100.00
13734;BME280;43298;52.560;13.508;2023-08-31T12:47:31;100228.16;;;20.03;100.00
13734;BME280;43298;52.560;13.508;2023-08-31T12:49:57;100228.75;;;20.26;100.00
13734;BME280;43298;52.560;13.508;2023-08-31T12:52:23;100238.63;;;19.94;100.00
13734;BME280;43298;52.560;13.508;2023-08-31T12:54:49;100235.78;;;20.16;100.00
13734;BME280;43298;52.560;13.508;2023-08-31T12:57:15;100229.66;;;21.11;100.00